sensor_id;sensor_type;location;lat;lon;timestamp;P1;durP1;ratioP1;P2;durP2;ratioP2
44722;SDS011;30451;48.638;10.624;2023-03-23T00:02:02;4.32;;;2.90;;
44722;SDS011;30451;48.638;10.624;2023-03-23T00:04:28;4.63;;;2.90;;
44722;SDS011;30451;48.638;10.624;2023-03-23T00:06:56;4.57;;;3.10;;
44722;SDS011;30451;48.638;10.624;2023-03-23T00:09:22;3.88;;;2.70;;
44722;SDS011;30451;48.638;10.624;2023-03-23T00:11:49;4.22;;;3.00;;
44722;SDS011;30451;48.638;10.624;2023-03-23T00:14:15;4.35;;;2.83;;
44722;SDS011;30451;48.638;10.624;2023-03-23T00:16:47;4.63;;;3.20;;
44722;SDS011;30451;48.638;10.624;2023-03-23T00:19:14;4.32;;;2.67;;
44722;SDS011;30451;48.638;10.624;2023-03-23T00:21:41;4.85;;;2.83;;
44722;SDS011;30451;48.638;10.624;2023-03-23T00:24:12;4.30;;;2.78;;
44722;SDS011;30451;48.638;10.624;2023-03-23T00:26:42;4.35;;;2.75;;
44722;SDS011;30451;48.638;10.624;2023-03-23T00:29:14;3.85;;;2.72;;
44722;SDS011;30451;48.638;10.624;2023-03-23T00:31:42;4.45;;;2.90;;
44722;SDS011;30451;48.638;10.624;2023-03-23T00:34:11;4.97;;;2.97;;
44722;SDS011;30451;48.638;10.624;2023-03-23T00:36:44;3.35;;;2.50;;
44722;SDS011;30451;48.638;10.624;2023-03-23T00:39:14;3.50;;;2.50;;
44722;SDS011;30451;48.638;10.624;2023-03-23T00:41:41;3.53;;;2.35;;
44722;SDS011;30451;48.638;10.624;2023-03-23T00:44:07;3.63;;;2.70;;
44722;SDS011;30451;48.638;10.624;2023-03-23T00:46:33;3.50;;;2.40;;
44722;SDS011;30451;48.638;10.624;2023-03-23T00:49:09;4.20;;;2.72;;
44722;SDS011;30451;48.638;10.624;2023-03-23T00:51:37;3.95;;;2.70;;
44722;SDS011;30451;48.638;10.624;2023-03-23T00:54:03;3.92;;;2.72;;
44722;SDS011;30451;48.638;10.624;2023-03-23T00:56:29;3.60;;;2.60;;
44722;SDS011;30451;48.638;10.624;2023-03-23T00:58:54;3.60;;;2.60;;
44722;SDS011;30451;48.638;10.624;2023-03-23T01:01:20;3.75;;;2.60;;
44722;SDS011;30451;48.638;10.624;2023-03-23T01:03:46;3.25;;;2.50;;
44722;SDS011;30451;48.638;10.624;2023-03-23T01:06:11;3.30;;;2.50;;
44722;SDS011;30451;48.638;10.624;2023-03-23T01:08:40;3.08;;;2.10;;
44722;SDS011;30451;48.638;10.624;2023-03-23T01:11:10;3.83;;;2.70;;
44722;SDS011;30451;48.638;10.624;2023-03-23T01:13:38;3.47;;;2.40;;
44722;SDS011;30451;48.638;10.624;2023-03-23T01:16:05;3.40;;;2.67;;
44722;SDS011;30451;48.638;10.624;2023-03-23T01:18:31;3.35;;;2.38;;
44722;SDS011;30451;48.638;10.624;2023-03-23T01:20:57;3.58;;;2.47;;
44722;SDS011;30451;48.638;10.624;2023-03-23T01:23:22;3.00;;;2.20;;
44722;SDS011;30451;48.638;10.624;2023-03-23T01:25:48;3.63;;;2.58;;
44722;SDS011;30451;48.638;10.624;2023-03-23T01:28:14;3.10;;;2.40;;
44722;SDS011;30451;48.638;10.624;2023-03-23T01:30:40;3.80;;;2.55;;
44722;SDS011;30451;48.638;10.624;2023-03-23T01:33:06;3.10;;;2.20;;
44722;SDS011;30451;48.638;10.624;2023-03-23T01:35:31;3.30;;;2.28;;
44722;SDS011;30451;48.638;10.624;2023-03-23T01:37:57;3.50;;;2.40;;
44722;SDS011;30451;48.638;10.624;2023-03-23T01:40:23;2.85;;;2.08;;
44722;SDS011;30451;48.638;10.624;2023-03-23T01:42:51;3.35;;;2.20;;
44722;SDS011;30451;48.638;10.624;2023-03-23T01:47:52;3.25;;;2.30;;
44722;SDS011;30451;48.638;10.624;2023-03-23T01:50:36;3.10;;;2.30;;
44722;SDS011;30451;48.638;10.624;2023-03-23T01:53:09;2.95;;;2.10;;
44722;SDS011;30451;48.638;10.624;2023-03-23T01:55:37;3.28;;;2.30;;
44722;SDS011;30451;48.638;10.624;2023-03-23T01:58:05;3.42;;;2.40;;
44722;SDS011;30451;48.638;10.624;2023-03-23T02:00:32;2.75;;;1.92;;
44722;SDS011;30451;48.638;10.624;2023-03-23T02:02:59;3.95;;;2.42;;
44722;SDS011;30451;48.638;10.624;2023-03-23T02:05:39;2.92;;;2.10;;
44722;SDS011;30451;48.638;10.624;2023-03-23T02:08:06;3.10;;;2.20;;
44722;SDS011;30451;48.638;10.624;2023-03-23T02:10:34;3.03;;;2.08;;
44722;SDS011;30451;48.638;10.624;2023-03-23T02:13:02;3.22;;;2.00;;
44722;SDS011;30451;48.638;10.624;2023-03-23T02:15:33;3.00;;;1.97;;
44722;SDS011;30451;48.638;10.624;2023-03-23T02:20:58;3.15;;;2.00;;
44722;SDS011;30451;48.638;10.624;2023-03-23T02:37:23;2.30;;;1.80;;
44722;SDS011;30451;48.638;10.624;2023-03-23T02:40:02;3.25;;;2.10;;
44722;SDS011;30451;48.638;10.624;2023-03-23T02:42:38;2.60;;;1.90;;
44722;SDS011;30451;48.638;10.624;2023-03-23T02:45:08;3.00;;;2.03;;
44722;SDS011;30451;48.638;10.624;2023-03-23T02:47:36;4.25;;;1.98;;
44722;SDS011;30451;48.638;10.624;2023-03-23T02:50:05;3.13;;;2.20;;
44722;SDS011;30451;48.638;10.624;2023-03-23T02:52:35;2.60;;;1.75;;
44722;SDS011;30451;48.638;10.624;2023-03-23T02:55:04;2.97;;;1.92;;
44722;SDS011;30451;48.638;10.624;2023-03-23T02:57:31;2.47;;;1.90;;
44722;SDS011;30451;48.638;10.624;2023-03-23T02:59:57;2.50;;;1.88;;
44722;SDS011;30451;48.638;10.624;2023-03-23T03:07:50;2.30;;;1.70;;
44722;SDS011;30451;48.638;10.624;2023-03-23T03:15:37;2.33;;;1.77;;
44722;SDS011;30451;48.638;10.624;2023-03-23T03:18:12;2.38;;;1.80;;
44722;SDS011;30451;48.638;10.624;2023-03-23T03:20:48;3.10;;;2.00;;
44722;SDS011;30451;48.638;10.624;2023-03-23T03:23:18;2.95;;;1.83;;
44722;SDS011;30451;48.638;10.624;2023-03-23T03:25:47;2.65;;;1.77;;
44722;SDS011;30451;48.638;10.624;2023-03-23T03:28:17;3.05;;;1.85;;
44722;SDS011;30451;48.638;10.624;2023-03-23T03:30:47;2.55;;;1.75;;
44722;SDS011;30451;48.638;10.624;2023-03-23T03:33:18;2.67;;;1.83;;
44722;SDS011;30451;48.638;10.624;2023-03-23T03:35:45;2.70;;;1.70;;
44722;SDS011;30451;48.638;10.624;2023-03-23T03:38:12;2.47;;;1.65;;
44722;SDS011;30451;48.638;10.624;2023-03-23T03:40:38;2.53;;;1.70;;
44722;SDS011;30451;48.638;10.624;2023-03-23T03:43:04;3.17;;;1.83;;
44722;SDS011;30451;48.638;10.624;2023-03-23T03:45:31;2.78;;;1.80;;
44722;SDS011;30451;48.638;10.624;2023-03-23T03:47:57;2.75;;;1.83;;
44722;SDS011;30451;48.638;10.624;2023-03-23T03:50:23;2.05;;;1.50;;
44722;SDS011;30451;48.638;10.624;2023-03-23T03:52:48;2.10;;;1.52;;
44722;SDS011;30451;48.638;10.624;2023-03-23T03:55:14;2.60;;;1.63;;
44722;SDS011;30451;48.638;10.624;2023-03-23T03:57:41;2.42;;;1.70;;
44722;SDS011;30451;48.638;10.624;2023-03-23T04:00:08;2.60;;;1.80;;
44722;SDS011;30451;48.638;10.624;2023-03-23T04:02:44;2.65;;;1.60;;
44722;SDS011;30451;48.638;10.624;2023-03-23T04:05:19;2.55;;;1.75;;
44722;SDS011;30451;48.638;10.624;2023-03-23T04:07:49;2.40;;;1.50;;
44722;SDS011;30451;48.638;10.624;2023-03-23T04:10:16;2.30;;;1.58;;
44722;SDS011;30451;48.638;10.624;2023-03-23T04:12:44;2.15;;;1.58;;
44722;SDS011;30451;48.638;10.624;2023-03-23T04:15:10;2.53;;;1.63;;
44722;SDS011;30451;48.638;10.624;2023-03-23T04:17:36;2.30;;;1.70;;
44722;SDS011;30451;48.638;10.624;2023-03-23T04:20:03;2.40;;;1.60;;
44722;SDS011;30451;48.638;10.624;2023-03-23T04:22:38;2.47;;;1.70;;
44722;SDS011;30451;48.638;10.624;2023-03-23T04:25:04;2.63;;;1.60;;
44722;SDS011;30451;48.638;10.624;2023-03-23T04:27:31;1.90;;;1.42;;
44722;SDS011;30451;48.638;10.624;2023-03-23T04:29:57;2.33;;;1.63;;
44722;SDS011;30451;48.638;10.624;2023-03-23T04:32:24;2.65;;;1.80;;
44722;SDS011;30451;48.638;10.624;2023-03-23T04:34:56;2.33;;;1.73;;
44722;SDS011;30451;48.638;10.624;2023-03-23T04:37:24;2.20;;;1.50;;
44722;SDS011;30451;48.638;10.624;2023-03-23T04:39:59;2.13;;;1.48;;
44722;SDS011;30451;48.638;10.624;2023-03-23T04:42:34;2.00;;;1.58;;
44722;SDS011;30451;48.638;10.624;2023-03-23T04:45:00;2.40;;;1.50;;
44722;SDS011;30451;48.638;10.624;2023-03-23T04:47:27;2.13;;;1.50;;
44722;SDS011;30451;48.638;10.624;2023-03-23T04:49:55;2.10;;;1.45;;
44722;SDS011;30451;48.638;10.624;2023-03-23T04:52:22;2.20;;;1.55;;
44722;SDS011;30451;48.638;10.624;2023-03-23T04:54:50;2.17;;;1.43;;
44722;SDS011;30451;48.638;10.624;2023-03-23T04:57:21;2.33;;;1.60;;
44722;SDS011;30451;48.638;10.624;2023-03-23T04:59:47;2.05;;;1.40;;
44722;SDS011;30451;48.638;10.624;2023-03-23T05:02:13;2.05;;;1.38;;
44722;SDS011;30451;48.638;10.624;2023-03-23T05:04:40;2.05;;;1.45;;
44722;SDS011;30451;48.638;10.624;2023-03-23T05:07:06;2.08;;;1.52;;
44722;SDS011;30451;48.638;10.624;2023-03-23T05:09:32;1.90;;;1.30;;
44722;SDS011;30451;48.638;10.624;2023-03-23T05:12:02;2.13;;;1.30;;
44722;SDS011;30451;48.638;10.624;2023-03-23T05:14:30;1.80;;;1.40;;
44722;SDS011;30451;48.638;10.624;2023-03-23T05:16:55;2.25;;;1.40;;
44722;SDS011;30451;48.638;10.624;2023-03-23T05:19:21;1.70;;;1.30;;
44722;SDS011;30451;48.638;10.624;2023-03-23T05:21:47;2.17;;;1.50;;
44722;SDS011;30451;48.638;10.624;2023-03-23T05:24:12;1.92;;;1.40;;
44722;SDS011;30451;48.638;10.624;2023-03-23T05:26:38;1.98;;;1.30;;
44722;SDS011;30451;48.638;10.624;2023-03-23T05:29:04;2.13;;;1.48;;
44722;SDS011;30451;48.638;10.624;2023-03-23T05:31:30;2.00;;;1.30;;
44722;SDS011;30451;48.638;10.624;2023-03-23T05:33:55;2.13;;;1.48;;
44722;SDS011;30451;48.638;10.624;2023-03-23T05:36:21;1.63;;;1.20;;
44722;SDS011;30451;48.638;10.624;2023-03-23T05:38:48;1.75;;;1.30;;
44722;SDS011;30451;48.638;10.624;2023-03-23T05:41:16;1.50;;;1.20;;
44722;SDS011;30451;48.638;10.624;2023-03-23T05:43:41;1.85;;;1.45;;
44722;SDS011;30451;48.638;10.624;2023-03-23T05:46:07;2.13;;;1.50;;
44722;SDS011;30451;48.638;10.624;2023-03-23T05:48:34;2.25;;;1.30;;
44722;SDS011;30451;48.638;10.624;2023-03-23T05:51:00;2.00;;;1.40;;
44722;SDS011;30451;48.638;10.624;2023-03-23T05:53:26;2.20;;;1.38;;
44722;SDS011;30451;48.638;10.624;2023-03-23T05:55:51;1.85;;;1.20;;
44722;SDS011;30451;48.638;10.624;2023-03-23T05:58:17;2.25;;;1.40;;
44722;SDS011;30451;48.638;10.624;2023-03-23T06:00:43;1.92;;;1.27;;
44722;SDS011;30451;48.638;10.624;2023-03-23T06:03:11;2.00;;;1.38;;
44722;SDS011;30451;48.638;10.624;2023-03-23T06:05:41;1.90;;;1.20;;
44722;SDS011;30451;48.638;10.624;2023-03-23T06:08:10;2.25;;;1.30;;
44722;SDS011;30451;48.638;10.624;2023-03-23T06:10:37;2.10;;;1.30;;
44722;SDS011;30451;48.638;10.624;2023-03-23T06:13:03;2.13;;;1.50;;
44722;SDS011;30451;48.638;10.624;2023-03-23T06:15:30;1.85;;;1.40;;
44722;SDS011;30451;48.638;10.624;2023-03-23T06:18:03;1.67;;;1.15;;
44722;SDS011;30451;48.638;10.624;2023-03-23T06:20:30;2.10;;;1.40;;
44722;SDS011;30451;48.638;10.624;2023-03-23T06:22:57;1.90;;;1.40;;
44722;SDS011;30451;48.638;10.624;2023-03-23T06:25:23;2.15;;;1.50;;
44722;SDS011;30451;48.638;10.624;2023-03-23T06:27:49;2.92;;;1.50;;
44722;SDS011;30451;48.638;10.624;2023-03-23T06:30:16;1.80;;;1.30;;
44722;SDS011;30451;48.638;10.624;2023-03-23T06:32:42;1.80;;;1.30;;
44722;SDS011;30451;48.638;10.624;2023-03-23T06:35:11;2.50;;;1.38;;
44722;SDS011;30451;48.638;10.624;2023-03-23T06:37:38;2.28;;;1.50;;
44722;SDS011;30451;48.638;10.624;2023-03-23T06:40:04;2.13;;;1.50;;
44722;SDS011;30451;48.638;10.624;2023-03-23T06:42:35;2.22;;;1.30;;
44722;SDS011;30451;48.638;10.624;2023-03-23T06:45:02;2.60;;;1.48;;
44722;SDS011;30451;48.638;10.624;2023-03-23T06:47:28;1.73;;;1.30;;
44722;SDS011;30451;48.638;10.624;2023-03-23T06:49:55;2.67;;;1.40;;
44722;SDS011;30451;48.638;10.624;2023-03-23T06:52:21;2.47;;;1.40;;
44722;SDS011;30451;48.638;10.624;2023-03-23T06:54:48;2.33;;;1.20;;
44722;SDS011;30451;48.638;10.624;2023-03-23T06:57:14;2.20;;;1.40;;
44722;SDS011;30451;48.638;10.624;2023-03-23T06:59:40;2.35;;;1.40;;
44722;SDS011;30451;48.638;10.624;2023-03-23T07:02:08;2.33;;;1.33;;
44722;SDS011;30451;48.638;10.624;2023-03-23T07:04:38;2.20;;;1.48;;
44722;SDS011;30451;48.638;10.624;2023-03-23T07:07:05;2.85;;;1.70;;
44722;SDS011;30451;48.638;10.624;2023-03-23T07:09:35;4.15;;;2.17;;
44722;SDS011;30451;48.638;10.624;2023-03-23T07:12:01;3.35;;;1.90;;
44722;SDS011;30451;48.638;10.624;2023-03-23T07:14:27;3.38;;;1.90;;
44722;SDS011;30451;48.638;10.624;2023-03-23T07:16:53;2.85;;;2.10;;
44722;SDS011;30451;48.638;10.624;2023-03-23T07:19:19;3.20;;;1.75;;
44722;SDS011;30451;48.638;10.624;2023-03-23T07:21:45;5.93;;;2.10;;
44722;SDS011;30451;48.638;10.624;2023-03-23T07:24:11;3.00;;;1.95;;
44722;SDS011;30451;48.638;10.624;2023-03-23T07:26:40;2.97;;;1.65;;
44722;SDS011;30451;48.638;10.624;2023-03-23T07:29:07;2.50;;;1.52;;
44722;SDS011;30451;48.638;10.624;2023-03-23T07:31:33;3.10;;;1.65;;
44722;SDS011;30451;48.638;10.624;2023-03-23T07:33:59;3.42;;;1.63;;
44722;SDS011;30451;48.638;10.624;2023-03-23T07:36:26;2.03;;;1.30;;
44722;SDS011;30451;48.638;10.624;2023-03-23T07:38:52;2.25;;;1.50;;
44722;SDS011;30451;48.638;10.624;2023-03-23T07:41:17;5.70;;;1.70;;
44722;SDS011;30451;48.638;10.624;2023-03-23T07:43:44;3.67;;;1.85;;
44722;SDS011;30451;48.638;10.624;2023-03-23T07:46:10;2.50;;;1.48;;
44722;SDS011;30451;48.638;10.624;2023-03-23T07:48:36;3.90;;;1.35;;
44722;SDS011;30451;48.638;10.624;2023-03-23T07:51:02;2.50;;;1.45;;
44722;SDS011;30451;48.638;10.624;2023-03-23T07:53:28;2.15;;;1.30;;
44722;SDS011;30451;48.638;10.624;2023-03-23T07:55:54;3.70;;;1.65;;
44722;SDS011;30451;48.638;10.624;2023-03-23T07:58:20;3.53;;;1.30;;
44722;SDS011;30451;48.638;10.624;2023-03-23T08:00:46;1.92;;;1.30;;
44722;SDS011;30451;48.638;10.624;2023-03-23T08:03:13;2.20;;;1.30;;
44722;SDS011;30451;48.638;10.624;2023-03-23T08:05:40;2.50;;;1.63;;
44722;SDS011;30451;48.638;10.624;2023-03-23T08:08:07;2.33;;;1.40;;
44722;SDS011;30451;48.638;10.624;2023-03-23T08:10:34;2.13;;;1.35;;
44722;SDS011;30451;48.638;10.624;2023-03-23T08:13:01;2.38;;;1.45;;
44722;SDS011;30451;48.638;10.624;2023-03-23T08:15:28;2.05;;;1.40;;
44722;SDS011;30451;48.638;10.624;2023-03-23T08:17:54;2.35;;;1.40;;
44722;SDS011;30451;48.638;10.624;2023-03-23T08:20:20;3.50;;;1.35;;
44722;SDS011;30451;48.638;10.624;2023-03-23T08:22:53;2.60;;;1.40;;
44722;SDS011;30451;48.638;10.624;2023-03-23T08:25:20;2.25;;;1.35;;
44722;SDS011;30451;48.638;10.624;2023-03-23T08:27:46;3.47;;;1.38;;
44722;SDS011;30451;48.638;10.624;2023-03-23T08:30:14;3.30;;;1.30;;
44722;SDS011;30451;48.638;10.624;2023-03-23T08:32:42;2.05;;;1.25;;
44722;SDS011;30451;48.638;10.624;2023-03-23T08:35:09;2.75;;;1.40;;
44722;SDS011;30451;48.638;10.624;2023-03-23T08:37:36;3.40;;;1.30;;
44722;SDS011;30451;48.638;10.624;2023-03-23T08:40:02;2.30;;;1.27;;
44722;SDS011;30451;48.638;10.624;2023-03-23T08:42:38;2.50;;;1.40;;
44722;SDS011;30451;48.638;10.624;2023-03-23T08:45:06;2.83;;;1.40;;
44722;SDS011;30451;48.638;10.624;2023-03-23T08:47:33;2.20;;;1.30;;
44722;SDS011;30451;48.638;10.624;2023-03-23T08:50:00;2.30;;;1.20;;
44722;SDS011;30451;48.638;10.624;2023-03-23T08:52:26;2.40;;;1.35;;
44722;SDS011;30451;48.638;10.624;2023-03-23T08:54:53;1.75;;;1.25;;
44722;SDS011;30451;48.638;10.624;2023-03-23T08:57:19;2.22;;;1.20;;
44722;SDS011;30451;48.638;10.624;2023-03-23T08:59:45;2.97;;;1.40;;
44722;SDS011;30451;48.638;10.624;2023-03-23T09:02:11;2.28;;;1.35;;
44722;SDS011;30451;48.638;10.624;2023-03-23T09:04:38;1.85;;;1.10;;
44722;SDS011;30451;48.638;10.624;2023-03-23T09:07:04;2.03;;;1.33;;
44722;SDS011;30451;48.638;10.624;2023-03-23T09:09:31;1.45;;;1.05;;
44722;SDS011;30451;48.638;10.624;2023-03-23T09:11:59;1.80;;;1.17;;
44722;SDS011;30451;48.638;10.624;2023-03-23T09:14:25;1.60;;;1.10;;
44722;SDS011;30451;48.638;10.624;2023-03-23T09:16:51;2.65;;;1.27;;
44722;SDS011;30451;48.638;10.624;2023-03-23T09:19:17;1.50;;;1.10;;
44722;SDS011;30451;48.638;10.624;2023-03-23T09:21:43;2.13;;;1.20;;
44722;SDS011;30451;48.638;10.624;2023-03-23T09:24:10;2.85;;;1.23;;
44722;SDS011;30451;48.638;10.624;2023-03-23T09:26:36;2.17;;;1.23;;
44722;SDS011;30451;48.638;10.624;2023-03-23T09:29:02;2.42;;;1.40;;
44722;SDS011;30451;48.638;10.624;2023-03-23T09:31:29;1.83;;;1.05;;
44722;SDS011;30451;48.638;10.624;2023-03-23T09:33:56;2.00;;;1.10;;
44722;SDS011;30451;48.638;10.624;2023-03-23T09:36:24;1.98;;;1.23;;
44722;SDS011;30451;48.638;10.624;2023-03-23T09:38:51;1.90;;;1.20;;
44722;SDS011;30451;48.638;10.624;2023-03-23T09:44:20;2.20;;;1.20;;
44722;SDS011;30451;48.638;10.624;2023-03-23T09:49:33;3.05;;;1.10;;
44722;SDS011;30451;48.638;10.624;2023-03-23T09:52:16;2.00;;;1.20;;
44722;SDS011;30451;48.638;10.624;2023-03-23T09:54:43;2.78;;;1.20;;
44722;SDS011;30451;48.638;10.624;2023-03-23T09:57:14;1.55;;;1.10;;
44722;SDS011;30451;48.638;10.624;2023-03-23T10:05:29;1.27;;;1.00;;
44722;SDS011;30451;48.638;10.624;2023-03-23T10:07:58;1.23;;;0.90;;
44722;SDS011;30451;48.638;10.624;2023-03-23T10:10:33;2.63;;;1.20;;
44722;SDS011;30451;48.638;10.624;2023-03-23T10:13:09;2.22;;;1.10;;
44722;SDS011;30451;48.638;10.624;2023-03-23T10:15:55;1.52;;;1.10;;
44722;SDS011;30451;48.638;10.624;2023-03-23T10:18:35;2.03;;;1.17;;
44722;SDS011;30451;48.638;10.624;2023-03-23T10:21:03;3.35;;;1.23;;
44722;SDS011;30451;48.638;10.624;2023-03-23T10:28:42;1.70;;;1.10;;
44722;SDS011;30451;48.638;10.624;2023-03-23T10:31:11;1.90;;;1.10;;
44722;SDS011;30451;48.638;10.624;2023-03-23T10:33:47;1.38;;;1.10;;
44722;SDS011;30451;48.638;10.624;2023-03-23T10:36:22;1.73;;;1.10;;
44722;SDS011;30451;48.638;10.624;2023-03-23T10:38:59;2.10;;;1.15;;
44722;SDS011;30451;48.638;10.624;2023-03-23T10:41:26;1.65;;;1.08;;
44722;SDS011;30451;48.638;10.624;2023-03-23T10:43:52;5.63;;;1.08;;
44722;SDS011;30451;48.638;10.624;2023-03-23T10:46:25;1.63;;;1.10;;
44722;SDS011;30451;48.638;10.624;2023-03-23T10:49:00;1.90;;;1.10;;
44722;SDS011;30451;48.638;10.624;2023-03-23T10:51:34;1.38;;;0.95;;
44722;SDS011;30451;48.638;10.624;2023-03-23T10:54:04;1.45;;;1.00;;
44722;SDS011;30451;48.638;10.624;2023-03-23T10:56:38;1.80;;;1.10;;
44722;SDS011;30451;48.638;10.624;2023-03-23T10:59:28;1.80;;;1.13;;
44722;SDS011;30451;48.638;10.624;2023-03-23T11:01:58;1.40;;;0.90;;
44722;SDS011;30451;48.638;10.624;2023-03-23T11:04:28;2.20;;;1.15;;
44722;SDS011;30451;48.638;10.624;2023-03-23T11:06:58;1.80;;;0.95;;
44722;SDS011;30451;48.638;10.624;2023-03-23T11:09:33;1.98;;;1.10;;
44722;SDS011;30451;48.638;10.624;2023-03-23T11:12:01;1.50;;;1.02;;
44722;SDS011;30451;48.638;10.624;2023-03-23T11:14:28;2.10;;;1.10;;
44722;SDS011;30451;48.638;10.624;2023-03-23T11:16:57;2.08;;;1.17;;
44722;SDS011;30451;48.638;10.624;2023-03-23T11:19:29;2.03;;;1.05;;
44722;SDS011;30451;48.638;10.624;2023-03-23T11:24:30;1.45;;;1.05;;
44722;SDS011;30451;48.638;10.624;2023-03-23T11:26:58;1.80;;;1.02;;
44722;SDS011;30451;48.638;10.624;2023-03-23T11:29:26;1.75;;;1.00;;
44722;SDS011;30451;48.638;10.624;2023-03-23T11:32:02;1.45;;;1.02;;
44722;SDS011;30451;48.638;10.624;2023-03-23T11:34:33;1.45;;;1.00;;
44722;SDS011;30451;48.638;10.624;2023-03-23T11:39:55;1.58;;;0.98;;
44722;SDS011;30451;48.638;10.624;2023-03-23T11:42:24;1.42;;;1.02;;
44722;SDS011;30451;48.638;10.624;2023-03-23T11:44:53;1.33;;;1.00;;
44722;SDS011;30451;48.638;10.624;2023-03-23T11:47:24;1.55;;;1.10;;
44722;SDS011;30451;48.638;10.624;2023-03-23T11:55:23;1.52;;;0.90;;
44722;SDS011;30451;48.638;10.624;2023-03-23T11:57:52;1.63;;;0.98;;
44722;SDS011;30451;48.638;10.624;2023-03-23T12:00:20;1.63;;;1.00;;
44722;SDS011;30451;48.638;10.624;2023-03-23T12:02:56;1.70;;;1.00;;
44722;SDS011;30451;48.638;10.624;2023-03-23T12:28:33;1.80;;;1.10;;
44722;SDS011;30451;48.638;10.624;2023-03-23T12:33:40;1.02;;;0.80;;
44722;SDS011;30451;48.638;10.624;2023-03-23T12:41:29;1.52;;;1.00;;
44722;SDS011;30451;48.638;10.624;2023-03-23T12:44:16;1.30;;;0.93;;
44722;SDS011;30451;48.638;10.624;2023-03-23T12:46:50;1.95;;;0.80;;
44722;SDS011;30451;48.638;10.624;2023-03-23T13:03:05;1.45;;;0.93;;
44722;SDS011;30451;48.638;10.624;2023-03-23T13:08:48;1.15;;;0.88;;
44722;SDS011;30451;48.638;10.624;2023-03-23T13:11:35;1.58;;;1.00;;
44722;SDS011;30451;48.638;10.624;2023-03-23T13:22:59;1.88;;;1.20;;
44722;SDS011;30451;48.638;10.624;2023-03-23T13:25:52;1.53;;;1.00;;
44722;SDS011;30451;48.638;10.624;2023-03-23T13:28:25;1.08;;;0.82;;
44722;SDS011;30451;48.638;10.624;2023-03-23T13:33:52;1.00;;;0.90;;
44722;SDS011;30451;48.638;10.624;2023-03-23T13:36:26;1.60;;;0.80;;
44722;SDS011;30451;48.638;10.624;2023-03-23T13:38:58;1.30;;;1.00;;
44722;SDS011;30451;48.638;10.624;2023-03-23T13:41:26;1.83;;;0.98;;
44722;SDS011;30451;48.638;10.624;2023-03-23T13:43:52;0.90;;;0.75;;
44722;SDS011;30451;48.638;10.624;2023-03-23T13:46:30;1.98;;;1.10;;
44722;SDS011;30451;48.638;10.624;2023-03-23T13:51:47;1.35;;;0.90;;
44722;SDS011;30451;48.638;10.624;2023-03-23T13:54:29;1.60;;;1.10;;
44722;SDS011;30451;48.638;10.624;2023-03-23T13:56:58;1.73;;;1.10;;
44722;SDS011;30451;48.638;10.624;2023-03-23T13:59:35;1.08;;;0.80;;
44722;SDS011;30451;48.638;10.624;2023-03-23T14:02:31;1.33;;;1.00;;
44722;SDS011;30451;48.638;10.624;2023-03-23T14:05:49;1.60;;;1.00;;
44722;SDS011;30451;48.638;10.624;2023-03-23T14:11:44;1.42;;;0.90;;
44722;SDS011;30451;48.638;10.624;2023-03-23T14:13:40;1.08;;;0.80;;
44722;SDS011;30451;48.638;10.624;2023-03-23T14:16:16;1.40;;;0.80;;
44722;SDS011;30451;48.638;10.624;2023-03-23T14:21:32;1.30;;;0.85;;
44722;SDS011;30451;48.638;10.624;2023-03-23T14:26:43;1.50;;;0.88;;
44722;SDS011;30451;48.638;10.624;2023-03-23T14:29:10;1.60;;;0.82;;
44722;SDS011;30451;48.638;10.624;2023-03-23T14:31:37;1.27;;;0.90;;
44722;SDS011;30451;48.638;10.624;2023-03-23T14:34:12;2.33;;;0.90;;
44722;SDS011;30451;48.638;10.624;2023-03-23T14:36:40;1.40;;;0.90;;
44722;SDS011;30451;48.638;10.624;2023-03-23T14:39:11;1.85;;;0.95;;
44722;SDS011;30451;48.638;10.624;2023-03-23T14:41:50;1.10;;;0.90;;
44722;SDS011;30451;48.638;10.624;2023-03-23T14:44:21;1.23;;;0.80;;
44722;SDS011;30451;48.638;10.624;2023-03-23T14:46:51;1.15;;;0.85;;
44722;SDS011;30451;48.638;10.624;2023-03-23T14:49:19;1.58;;;0.90;;
44722;SDS011;30451;48.638;10.624;2023-03-23T14:51:53;1.30;;;0.85;;
44722;SDS011;30451;48.638;10.624;2023-03-23T14:54:24;0.90;;;0.80;;
44722;SDS011;30451;48.638;10.624;2023-03-23T14:56:51;1.70;;;1.10;;
44722;SDS011;30451;48.638;10.624;2023-03-23T14:59:18;1.20;;;0.85;;
44722;SDS011;30451;48.638;10.624;2023-03-23T15:01:45;1.98;;;1.10;;
44722;SDS011;30451;48.638;10.624;2023-03-23T15:04:23;1.48;;;0.95;;
44722;SDS011;30451;48.638;10.624;2023-03-23T15:06:52;1.55;;;0.90;;
44722;SDS011;30451;48.638;10.624;2023-03-23T15:09:23;1.15;;;0.90;;
44722;SDS011;30451;48.638;10.624;2023-03-23T15:11:57;1.65;;;1.00;;
44722;SDS011;30451;48.638;10.624;2023-03-23T15:14:29;1.75;;;0.90;;
44722;SDS011;30451;48.638;10.624;2023-03-23T15:17:09;1.02;;;0.88;;
44722;SDS011;30451;48.638;10.624;2023-03-23T15:19:44;0.90;;;0.80;;
44722;SDS011;30451;48.638;10.624;2023-03-23T15:22:21;1.60;;;0.93;;
44722;SDS011;30451;48.638;10.624;2023-03-23T15:24:52;1.15;;;0.80;;
44722;SDS011;30451;48.638;10.624;2023-03-23T15:27:30;1.08;;;0.80;;
44722;SDS011;30451;48.638;10.624;2023-03-23T15:30:45;0.73;;;0.68;;
44722;SDS011;30451;48.638;10.624;2023-03-23T15:33:11;1.00;;;0.75;;
44722;SDS011;30451;48.638;10.624;2023-03-23T15:35:39;0.73;;;0.68;;
44722;SDS011;30451;48.638;10.624;2023-03-23T15:38:15;1.33;;;0.90;;
44722;SDS011;30451;48.638;10.624;2023-03-23T15:40:48;1.98;;;0.88;;
44722;SDS011;30451;48.638;10.624;2023-03-23T15:43:22;0.80;;;0.70;;
44722;SDS011;30451;48.638;10.624;2023-03-23T15:48:31;2.08;;;0.85;;
44722;SDS011;30451;48.638;10.624;2023-03-23T15:50:58;0.98;;;0.80;;
44722;SDS011;30451;48.638;10.624;2023-03-23T15:53:32;1.20;;;0.90;;
44722;SDS011;30451;48.638;10.624;2023-03-23T15:56:01;1.15;;;0.80;;
44722;SDS011;30451;48.638;10.624;2023-03-23T15:58:29;1.10;;;0.70;;
44722;SDS011;30451;48.638;10.624;2023-03-23T16:00:55;1.05;;;0.70;;
44722;SDS011;30451;48.638;10.624;2023-03-23T16:03:22;1.17;;;0.80;;
44722;SDS011;30451;48.638;10.624;2023-03-23T16:05:54;1.08;;;0.75;;
44722;SDS011;30451;48.638;10.624;2023-03-23T16:08:21;0.60;;;0.60;;
44722;SDS011;30451;48.638;10.624;2023-03-23T16:10:47;1.50;;;0.90;;
44722;SDS011;30451;48.638;10.624;2023-03-23T16:13:13;1.10;;;0.70;;
44722;SDS011;30451;48.638;10.624;2023-03-23T16:15:39;0.70;;;0.70;;
44722;SDS011;30451;48.638;10.624;2023-03-23T16:18:04;1.33;;;0.90;;
44722;SDS011;30451;48.638;10.624;2023-03-23T16:20:30;1.58;;;0.80;;
44722;SDS011;30451;48.638;10.624;2023-03-23T16:22:57;1.23;;;0.80;;
44722;SDS011;30451;48.638;10.624;2023-03-23T16:25:23;1.40;;;0.80;;
44722;SDS011;30451;48.638;10.624;2023-03-23T16:27:49;1.38;;;0.90;;
44722;SDS011;30451;48.638;10.624;2023-03-23T16:30:25;1.00;;;0.73;;
44722;SDS011;30451;48.638;10.624;2023-03-23T16:32:52;1.00;;;0.80;;
44722;SDS011;30451;48.638;10.624;2023-03-23T16:35:18;1.30;;;0.80;;
44722;SDS011;30451;48.638;10.624;2023-03-23T16:37:49;1.60;;;1.00;;
44722;SDS011;30451;48.638;10.624;2023-03-23T16:40:17;1.10;;;0.80;;
44722;SDS011;30451;48.638;10.624;2023-03-23T16:42:43;1.05;;;0.70;;
44722;SDS011;30451;48.638;10.624;2023-03-23T16:45:10;1.08;;;0.70;;
44722;SDS011;30451;48.638;10.624;2023-03-23T16:47:37;0.75;;;0.70;;
44722;SDS011;30451;48.638;10.624;2023-03-23T16:50:05;1.10;;;0.70;;
44722;SDS011;30451;48.638;10.624;2023-03-23T16:52:33;0.98;;;0.68;;
44722;SDS011;30451;48.638;10.624;2023-03-23T16:54:59;1.30;;;0.80;;
44722;SDS011;30451;48.638;10.624;2023-03-23T16:57:25;1.10;;;0.80;;